Terminal Aerodrome Forecast
Issued by NWS

Home | Current Version | Previous Version | Text Only | Print | Product List | Glossary On
Versions: 1 2 3 4 5 6 7 8 9 10 11 12 13 14 15 16 17 18 19 20 21 22
107
FTUS44 KBMX 191738
TAFANB
TAF
KANB 191738Z 1918/2018 16006KT P6SM SCT025 SCT050
      TEMPO 1918/1920 BKN025
     FM192100 17008G18KT P6SM BKN050
     FM200200 06003KT P6SM SCT060
     FM201300 08006KT P6SM BKN015=

USA.gov is the U.S. government's official web portal to all federal, state and local government web resources and services.